createdAt,value
2022-12-20T00:01:28.683Z,101514.47
2022-12-20T00:03:57.435Z,101514.66
2022-12-20T00:06:25.880Z,101510.66
2022-12-20T00:09:01.658Z,101508.34
2022-12-20T00:11:30.012Z,101497.88
2022-12-20T00:13:57.558Z,101482.94
2022-12-20T00:16:27.224Z,101471.75
2022-12-20T00:18:57.501Z,101472.78
2022-12-20T00:21:24.901Z,101470.47
2022-12-20T00:23:52.681Z,101480.53
2022-12-20T00:26:21.950Z,101467.91
2022-12-20T00:28:49.158Z,101468.81
2022-12-20T00:31:20.076Z,101481.25
2022-12-20T00:33:49.402Z,101483.06
2022-12-20T00:36:17.549Z,101493.72
2022-12-20T00:38:47.519Z,101494.34
2022-12-20T00:41:17.409Z,101486.50
2022-12-20T00:43:44.559Z,101486.78
2022-12-20T00:46:12.333Z,101492.22
2022-12-20T00:48:39.204Z,101492.31
2022-12-20T00:51:09.590Z,101477.91
2022-12-20T00:53:36.910Z,101474.53
2022-12-20T00:56:04.654Z,101450.75
2022-12-20T00:58:33.783Z,101459.97
2022-12-20T01:01:00.701Z,101460.47
2022-12-20T01:03:28.231Z,101472.41
2022-12-20T01:05:57.644Z,101486.56
2022-12-20T01:08:26.102Z,101479.44
2022-12-20T01:11:00.009Z,101483.81
2022-12-20T01:13:27.661Z,101478.94
2022-12-20T01:15:54.546Z,101478.44
2022-12-20T01:18:21.571Z,101470.69
2022-12-20T01:20:48.314Z,101474.81
2022-12-20T01:23:15.026Z,101485.03
2022-12-20T01:25:41.760Z,101477.19
2022-12-20T01:28:08.520Z,101483.03
2022-12-20T01:30:35.235Z,101487.31
2022-12-20T01:33:01.929Z,101484.22
2022-12-20T01:35:28.951Z,101470.69
2022-12-20T01:37:55.867Z,101461.38
2022-12-20T01:40:22.540Z,101447.91
2022-12-20T01:42:49.166Z,101453.72
2022-12-20T01:45:28.720Z,101446.91
2022-12-20T01:47:57.441Z,101454.41
2022-12-20T01:50:24.952Z,101453.41
2022-12-20T01:52:53.191Z,101459.81
2022-12-20T01:55:25.230Z,101463.09
2022-12-20T01:58:00.432Z,101448.28
2022-12-20T02:00:27.878Z,101436.44
2022-12-20T02:02:58.821Z,101434.13
2022-12-20T02:05:25.713Z,101421.38
2022-12-20T02:07:55.271Z,101422.19
2022-12-20T02:10:27.530Z,101416.25
2022-12-20T02:13:05.836Z,101411.25
2022-12-20T02:15:52.874Z,101401.03
2022-12-20T02:18:28.447Z,101411.34
2022-12-20T02:21:13.180Z,101415.84
2022-12-20T02:23:58.502Z,101411.44
2022-12-20T02:26:43.679Z,101408.38
2022-12-20T02:29:22.457Z,101401.81
2022-12-20T02:32:02.646Z,101402.25
2022-12-20T02:34:33.042Z,101406.19
2022-12-20T02:37:00.391Z,101401.28
2022-12-20T02:39:30.417Z,101405.72
2022-12-20T02:42:05.947Z,101411.84
2022-12-20T02:44:54.705Z,101412.66
2022-12-20T02:47:35.534Z,101400.16
2022-12-20T02:50:04.411Z,101399.34
2022-12-20T02:52:32.658Z,101408.81
2022-12-20T02:55:01.296Z,101397.72
2022-12-20T02:57:41.076Z,101395.06
2022-12-20T03:00:15.003Z,101398.53
2022-12-20T03:03:01.876Z,101394.59
2022-12-20T03:05:29.268Z,101380.47
2022-12-20T03:07:58.029Z,101376.09
2022-12-20T03:10:25.808Z,101375.00
2022-12-20T03:12:54.085Z,101375.72
2022-12-20T03:15:20.801Z,101376.34
2022-12-20T03:17:52.005Z,101369.16
2022-12-20T03:20:18.963Z,101367.88
2022-12-20T03:22:45.684Z,101370.53
2022-12-20T03:25:12.475Z,101358.69
2022-12-20T03:27:39.976Z,101367.16
2022-12-20T03:30:07.510Z,101355.41
2022-12-20T03:32:38.010Z,101358.78
2022-12-20T03:35:06.241Z,101355.13
2022-12-20T03:37:36.505Z,101356.22
2022-12-20T03:40:06.121Z,101354.75
2022-12-20T03:42:33.545Z,101353.94
2022-12-20T03:45:00.551Z,101354.56
2022-12-20T03:47:32.143Z,101351.19
2022-12-20T03:49:59.009Z,101341.78
2022-12-20T03:52:27.441Z,101346.47
2022-12-20T03:54:54.227Z,101344.16
2022-12-20T03:57:26.435Z,101345.28
2022-12-20T03:59:55.101Z,101358.94
2022-12-20T04:02:22.927Z,101362.59
2022-12-20T04:04:50.262Z,101363.88
2022-12-20T04:07:17.907Z,101352.00
2022-12-20T04:09:46.621Z,101352.16
2022-12-20T04:12:15.033Z,101355.81
2022-12-20T04:14:42.716Z,101356.81
2022-12-20T04:17:11.557Z,101357.66
2022-12-20T04:19:39.039Z,101347.25
2022-12-20T04:22:07.366Z,101350.72
2022-12-20T04:24:49.126Z,101352.53
2022-12-20T04:27:38.378Z,101350.19
2022-12-20T04:30:07.776Z,101350.91
2022-12-20T04:32:34.771Z,101354.28
2022-12-20T04:35:02.072Z,101348.78
2022-12-20T04:37:30.617Z,101357.03
2022-12-20T04:39:58.425Z,101361.31
2022-12-20T04:42:39.845Z,101356.19
2022-12-20T04:45:08.317Z,101341.63
2022-12-20T04:47:37.586Z,101349.28
2022-12-20T04:50:07.209Z,101353.38
2022-12-20T04:52:52.331Z,101350.63
2022-12-20T04:55:19.264Z,101349.56
2022-12-20T04:57:46.221Z,101339.34
2022-12-20T05:00:15.447Z,101345.28
2022-12-20T05:02:47.195Z,101328.31
2022-12-20T05:05:17.486Z,101334.88
2022-12-20T05:07:49.392Z,101332.13
2022-12-20T05:10:18.898Z,101328.66
2022-12-20T05:12:48.754Z,101330.16
2022-12-20T05:15:24.427Z,101326.88
2022-12-20T05:17:51.718Z,101325.19
2022-12-20T05:20:18.969Z,101328.03
2022-12-20T05:23:05.985Z,101329.97
2022-12-20T05:26:10.171Z,101331.69
2022-12-20T05:28:38.656Z,101324.66
2022-12-20T05:31:06.513Z,101326.56
2022-12-20T05:33:35.474Z,101316.53
2022-12-20T05:36:03.825Z,101331.84
2022-12-20T05:38:30.624Z,101332.03
2022-12-20T05:40:58.196Z,101329.72
2022-12-20T05:43:24.951Z,101331.22
2022-12-20T05:45:53.312Z,101337.41
2022-12-20T05:48:29.545Z,101332.47
2022-12-20T05:50:56.459Z,101330.31
2022-12-20T05:53:28.734Z,101312.88
2022-12-20T05:55:58.853Z,101284.91
2022-12-20T05:58:30.819Z,101294.94
2022-12-20T06:01:07.959Z,101296.38
2022-12-20T06:03:39.613Z,101306.56
2022-12-20T06:06:24.757Z,101307.06
2022-12-20T06:08:52.415Z,101309.16
2022-12-20T06:11:30.379Z,101316.25
2022-12-20T06:14:05.567Z,101331.00
2022-12-20T06:16:34.387Z,101326.06
2022-12-20T06:19:02.593Z,101324.34
2022-12-20T06:21:32.152Z,101323.00
2022-12-20T06:23:59.790Z,101323.00
2022-12-20T06:26:26.628Z,101315.72
2022-12-20T06:28:57.179Z,101317.97
2022-12-20T06:31:30.975Z,101328.00
2022-12-20T06:33:57.839Z,101323.47
2022-12-20T06:36:29.138Z,101335.19
2022-12-20T06:38:56.029Z,101333.63
2022-12-20T06:41:22.821Z,101331.94
2022-12-20T06:43:50.010Z,101319.81
2022-12-20T06:46:16.954Z,101310.13
2022-12-20T06:48:46.016Z,101320.19
2022-12-20T06:51:13.793Z,101306.13
2022-12-20T06:53:40.781Z,101302.97
2022-12-20T06:56:07.744Z,101302.97
2022-12-20T06:58:34.479Z,101303.09
2022-12-20T07:01:01.752Z,101298.00
2022-12-20T07:03:28.734Z,101291.28
2022-12-20T07:05:55.903Z,101301.13
2022-12-20T07:08:23.847Z,101297.84
2022-12-20T07:10:52.881Z,101301.13
2022-12-20T07:13:20.321Z,101295.22
2022-12-20T07:15:47.103Z,101305.56
2022-12-20T07:18:13.795Z,101308.78
2022-12-20T07:20:40.758Z,101312.78
2022-12-20T07:23:07.511Z,101311.63
2022-12-20T07:25:34.345Z,101312.25
2022-12-20T07:28:01.004Z,101313.88
2022-12-20T07:30:27.724Z,101322.13
2022-12-20T07:32:54.743Z,101317.94
2022-12-20T07:35:21.509Z,101313.56
2022-12-20T07:37:48.276Z,101307.34
2022-12-20T07:40:16.484Z,101315.56
2022-12-20T07:42:48.492Z,101301.31
2022-12-20T07:45:16.275Z,101292.94
2022-12-20T07:47:44.084Z,101298.06
2022-12-20T07:50:11.986Z,101299.50
2022-12-20T07:52:41.278Z,101306.25
2022-12-20T07:55:09.354Z,101287.50
2022-12-20T07:58:04.831Z,101288.03
2022-12-20T08:00:32.172Z,101282.00
2022-12-20T08:03:22.613Z,101293.84
2022-12-20T08:05:55.327Z,101292.66
2022-12-20T08:08:22.643Z,101286.41
2022-12-20T08:10:50.272Z,101281.91
2022-12-20T08:13:17.682Z,101284.84
2022-12-20T08:15:44.753Z,101298.50
2022-12-20T08:18:12.317Z,101300.25
2022-12-20T08:20:40.276Z,101293.31
2022-12-20T08:23:07.272Z,101301.97
2022-12-20T08:25:41.187Z,101297.13
2022-12-20T08:28:11.461Z,101285.81
2022-12-20T08:30:38.582Z,101285.28
2022-12-20T08:33:05.855Z,101284.38
2022-12-20T08:35:59.455Z,101295.69
2022-12-20T08:38:29.266Z,101300.50
2022-12-20T08:40:57.303Z,101303.69
2022-12-20T08:43:24.871Z,101311.00
2022-12-20T08:45:55.663Z,101296.41
2022-12-20T08:48:23.094Z,101280.00
2022-12-20T08:50:58.781Z,101280.72
2022-12-20T08:53:26.156Z,101296.03
2022-12-20T08:55:53.375Z,101289.22
2022-12-20T08:58:21.127Z,101278.34
2022-12-20T09:00:47.798Z,101273.97
2022-12-20T09:03:15.478Z,101266.88
2022-12-20T09:05:47.317Z,101265.78
2022-12-20T09:08:15.528Z,101260.22
2022-12-20T09:10:44.253Z,101266.88
2022-12-20T09:13:11.544Z,101259.41
2022-12-20T09:15:38.467Z,101254.91
2022-12-20T09:18:05.829Z,101251.03
2022-12-20T09:20:33.093Z,101248.63
2022-12-20T09:23:01.581Z,101251.19
2022-12-20T09:25:30.218Z,101260.84
2022-12-20T09:27:57.571Z,101269.78
2022-12-20T09:30:24.889Z,101254.56
2022-12-20T09:32:51.705Z,101247.53
2022-12-20T09:35:23.019Z,101241.53
2022-12-20T09:37:50.236Z,101243.25
2022-12-20T09:40:24.396Z,101234.50
2022-12-20T09:42:52.063Z,101240.00
2022-12-20T09:45:29.617Z,101248.09
2022-12-20T09:47:56.759Z,101252.84
2022-12-20T09:51:22.385Z,101236.69
2022-12-20T09:54:22.603Z,101234.06
2022-12-20T09:57:09.562Z,101239.50
2022-12-20T09:59:45.978Z,101241.44
2022-12-20T10:05:42.879Z,101220.19
2022-12-20T10:08:34.687Z,101215.44
2022-12-20T10:11:26.719Z,101211.16
2022-12-20T10:14:45.972Z,101215.53
2022-12-20T10:17:45.101Z,101218.16
2022-12-20T10:20:36.734Z,101214.72
2022-12-20T10:23:07.659Z,101214.72
2022-12-20T10:25:35.503Z,101207.94
2022-12-20T10:28:12.187Z,101200.13
2022-12-20T10:30:39.040Z,101212.88
2022-12-20T10:33:05.902Z,101202.13
2022-12-20T10:35:41.490Z,101195.13
2022-12-20T10:38:12.824Z,101190.44
2022-12-20T10:43:44.925Z,101178.78
2022-12-20T10:46:13.707Z,101167.56
2022-12-20T10:48:42.597Z,101167.34
2022-12-20T10:51:16.842Z,101161.25
2022-12-20T10:54:01.537Z,101151.22
2022-12-20T10:56:33.618Z,101152.78
2022-12-20T10:59:28.725Z,101154.69
2022-12-20T11:01:55.828Z,101147.75
2022-12-20T11:04:34.945Z,101148.88
2022-12-20T11:07:21.562Z,101144.31
2022-12-20T11:09:58.868Z,101144.94
2022-12-20T11:12:25.881Z,101143.53
2022-12-20T11:15:19.733Z,101146.09
2022-12-20T11:17:51.603Z,101133.69
2022-12-20T11:20:45.840Z,101118.94
2022-12-20T11:23:30.763Z,101119.06
2022-12-20T11:26:41.900Z,101112.19
2022-12-20T11:29:17.766Z,101103.41
2022-12-20T11:31:44.544Z,101108.22
2022-12-20T11:34:44.280Z,101109.16
2022-12-20T11:37:21.909Z,101105.72
2022-12-20T11:40:08.281Z,101098.38
2022-12-20T11:43:00.400Z,101095.19
2022-12-20T11:45:57.043Z,101103.06
2022-12-20T11:48:52.912Z,101090.16
2022-12-20T11:51:30.494Z,101084.22
2022-12-20T11:54:10.531Z,101080.25
2022-12-20T11:56:45.106Z,101074.59
2022-12-20T11:59:19.012Z,101075.16
2022-12-20T12:01:53.663Z,101070.13
2022-12-20T12:04:26.696Z,101058.38
2022-12-20T12:07:12.897Z,101066.44
2022-12-20T12:10:07.911Z,101062.31
2022-12-20T12:12:52.990Z,101051.22
2022-12-20T12:15:40.845Z,101046.84
2022-12-20T12:18:29.269Z,101052.75
2022-12-20T12:21:22.480Z,101042.34
2022-12-20T12:24:27.525Z,101035.00
2022-12-20T12:26:54.609Z,101026.22
2022-12-20T12:29:23.308Z,101034.38
2022-12-20T12:32:18.077Z,101022.22
2022-12-20T12:35:06.116Z,101025.53
2022-12-20T12:37:49.805Z,101020.78
2022-12-20T12:40:27.371Z,101013.19
2022-12-20T12:43:16.890Z,101005.66
2022-12-20T12:45:48.374Z,101005.88
2022-12-20T12:48:34.507Z,101004.75
2022-12-20T12:51:02.699Z,100992.53
2022-12-20T12:53:45.785Z,100997.09
2022-12-20T12:56:45.174Z,100989.66
2022-12-20T12:59:33.904Z,100995.59
2022-12-20T13:02:04.106Z,100984.34
2022-12-20T13:04:52.384Z,100985.97
2022-12-20T13:07:45.532Z,100991.59
2022-12-20T13:10:15.327Z,100991.91
2022-12-20T13:12:42.039Z,100991.50
2022-12-20T13:15:22.511Z,100990.31
2022-12-20T13:17:58.223Z,101007.28
2022-12-20T13:20:36.468Z,101005.63
2022-12-20T13:23:09.124Z,101007.16
2022-12-20T13:25:38.669Z,101007.03
2022-12-20T13:28:24.553Z,101009.38
2022-12-20T13:30:54.346Z,101008.56
2022-12-20T13:33:41.987Z,101011.94
2022-12-20T13:36:11.860Z,101009.81
2022-12-20T13:38:55.341Z,101007.38
2022-12-20T13:41:35.695Z,101013.19
2022-12-20T13:44:23.669Z,101018.59
2022-12-20T13:47:03.181Z,101021.78
2022-12-20T13:49:43.759Z,101018.69
2022-12-20T13:52:13.467Z,101020.97
2022-12-20T13:54:45.468Z,101023.81
2022-12-20T13:57:29.181Z,101016.66
2022-12-20T14:00:05.419Z,101017.66
2022-12-20T14:02:37.022Z,101024.53
2022-12-20T14:05:31.252Z,101019.13
2022-12-20T14:08:02.721Z,101004.56
2022-12-20T14:10:31.512Z,101006.44
2022-12-20T14:12:59.102Z,101008.47
2022-12-20T14:15:29.134Z,101007.59
2022-12-20T14:17:56.445Z,101001.34
2022-12-20T14:20:30.777Z,100999.25
2022-12-20T14:23:10.604Z,100983.75
2022-12-20T14:25:40.396Z,100980.97
2022-12-20T14:28:27.673Z,100974.94
2022-12-20T14:30:55.865Z,100966.34
2022-12-20T14:33:32.157Z,100958.19
2022-12-20T14:36:22.279Z,100954.66
2022-12-20T14:38:51.674Z,100950.66
2022-12-20T14:41:38.341Z,100954.69
2022-12-20T14:44:07.918Z,100949.97
2022-12-20T14:46:43.583Z,100943.31
2022-12-20T14:49:28.243Z,100941.09
2022-12-20T14:52:12.386Z,100950.06
2022-12-20T14:55:10.849Z,100951.59
2022-12-20T14:57:39.598Z,100959.06
2022-12-20T15:00:07.361Z,100960.47
2022-12-20T15:02:42.026Z,100956.56
2022-12-20T15:05:38.381Z,100961.69
2022-12-20T15:08:22.638Z,100948.03
2022-12-20T15:11:03.634Z,100948.94
2022-12-20T15:13:38.401Z,100962.84
2022-12-20T15:16:18.500Z,100940.88
2022-12-20T15:18:49.126Z,100945.28
2022-12-20T15:21:36.332Z,100940.66
2022-12-20T15:24:08.109Z,100947.09
2022-12-20T15:26:35.893Z,100939.44
2022-12-20T15:29:04.448Z,100936.69
2022-12-20T15:31:34.113Z,100934.53
2022-12-20T15:34:03.814Z,100944.22
2022-12-20T15:36:34.067Z,100937.50
2022-12-20T15:39:12.579Z,100936.56
2022-12-20T15:41:43.044Z,100932.03
2022-12-20T15:44:22.263Z,100938.88
2022-12-20T15:46:50.710Z,100938.53
2022-12-20T15:49:21.332Z,100931.88
2022-12-20T15:51:49.938Z,100940.88
2022-12-20T15:54:37.140Z,100935.16
2022-12-20T15:57:09.847Z,100944.84
2022-12-20T16:02:29.212Z,100942.63
2022-12-20T16:04:56.568Z,100940.25
2022-12-20T16:07:24.168Z,100944.75
2022-12-20T16:09:51.183Z,100939.03
2022-12-20T16:12:30.084Z,100940.16
2022-12-20T16:14:57.252Z,100932.28
2022-12-20T16:17:24.311Z,100944.22
2022-12-20T16:19:51.138Z,100935.56
2022-12-20T16:22:20.279Z,100921.88
2022-12-20T16:24:47.222Z,100923.72
2022-12-20T16:27:14.450Z,100933.94
2022-12-20T16:29:41.663Z,100940.47
2022-12-20T16:32:19.981Z,100939.03
2022-12-20T16:34:47.431Z,100928.72
2022-12-20T16:37:14.370Z,100924.44
2022-12-20T16:39:41.656Z,100942.47
2022-12-20T16:42:18.120Z,100931.56
2022-12-20T16:44:46.096Z,100927.16
2022-12-20T16:47:14.461Z,100921.88
2022-12-20T16:49:44.632Z,100917.59
2022-12-20T16:52:18.833Z,100912.50
2022-12-20T16:54:45.547Z,100909.22
2022-12-20T16:57:12.278Z,100904.94
2022-12-20T16:59:39.064Z,100901.56
2022-12-20T17:02:26.601Z,100900.94
2022-12-20T17:04:53.513Z,100901.84
2022-12-20T17:07:20.269Z,100906.97
2022-12-20T17:12:31.124Z,100907.97
2022-12-20T17:14:58.079Z,100906.13
2022-12-20T17:17:25.398Z,100909.50
2022-12-20T17:19:52.216Z,100905.53
2022-12-20T17:22:25.629Z,100908.91
2022-12-20T17:24:52.424Z,100909.00
2022-12-20T17:27:19.344Z,100903.59
2022-12-20T17:29:46.192Z,100911.03
2022-12-20T17:32:24.743Z,100906.75
2022-12-20T17:34:53.101Z,100899.94
2022-12-20T17:37:21.656Z,100898.59
2022-12-20T17:39:50.055Z,100906.34
2022-12-20T17:42:17.324Z,100909.81
2022-12-20T17:44:47.254Z,100892.28
2022-12-20T17:47:17.004Z,100892.88
2022-12-20T17:49:43.941Z,100889.81
2022-12-20T17:52:15.160Z,100880.94
2022-12-20T17:54:41.874Z,100875.13
2022-12-20T17:57:15.986Z,100882.88
2022-12-20T17:59:44.087Z,100882.78
2022-12-20T18:02:42.372Z,100885.53
2022-12-20T18:05:13.210Z,100878.28
2022-12-20T18:07:41.095Z,100868.06
2022-12-20T18:10:08.820Z,100867.97
2022-12-20T18:12:37.787Z,100845.72
2022-12-20T18:15:07.672Z,100850.41
2022-12-20T18:17:34.802Z,100851.94
2022-12-20T18:20:02.780Z,100865.03
2022-12-20T18:22:34.641Z,100865.91
2022-12-20T18:25:03.905Z,100854.81
2022-12-20T18:27:31.573Z,100863.78
2022-12-20T18:29:58.767Z,100867.84
2022-12-20T18:32:27.111Z,100866.03
2022-12-20T18:34:54.247Z,100875.81
2022-12-20T18:37:23.147Z,100868.66
2022-12-20T18:39:50.052Z,100876.53
2022-12-20T18:42:16.911Z,100871.22
2022-12-20T18:44:43.768Z,100878.66
2022-12-20T18:47:11.569Z,100868.94
2022-12-20T18:49:39.562Z,100863.84
2022-12-20T18:52:06.549Z,100864.06
2022-12-20T18:54:34.910Z,100875.94
2022-12-20T18:57:06.186Z,100876.66
2022-12-20T18:59:34.333Z,100867.63
2022-12-20T19:02:03.582Z,100866.91
2022-12-20T19:04:30.830Z,100863.66
2022-12-20T19:06:58.905Z,100861.09
2022-12-20T19:09:26.660Z,100848.31
2022-12-20T19:11:57.487Z,100837.91
2022-12-20T19:14:25.180Z,100829.16
2022-12-20T19:16:52.143Z,100838.72
2022-12-20T19:19:19.152Z,100843.44
2022-12-20T19:21:45.976Z,100835.50
2022-12-20T19:24:13.658Z,100829.22
2022-12-20T19:26:42.353Z,100834.75
2022-12-20T19:29:09.936Z,100820.44
2022-12-20T19:31:38.144Z,100817.97
2022-12-20T19:34:11.744Z,100824.94
2022-12-20T19:36:45.940Z,100819.94
2022-12-20T19:39:20.751Z,100822.59
2022-12-20T19:42:15.578Z,100817.19
2022-12-20T19:44:36.918Z,100795.41
2022-12-20T19:47:06.688Z,100784.94
2022-12-20T19:49:35.543Z,100788.81
2022-12-20T19:52:03.147Z,100802.06
2022-12-20T19:54:30.238Z,100806.13
2022-12-20T19:57:01.233Z,100814.31
2022-12-20T19:59:30.973Z,100818.78
2022-12-20T20:02:03.659Z,100811.00
2022-12-20T20:04:33.089Z,100806.91
2022-12-20T20:07:06.208Z,100805.06
2022-12-20T20:09:33.343Z,100807.38
2022-12-20T20:12:07.127Z,100801.47
2022-12-20T20:14:37.890Z,100803.75
2022-12-20T20:17:04.773Z,100795.16
2022-12-20T20:19:32.206Z,100776.69
2022-12-20T20:22:03.575Z,100777.38
2022-12-20T20:24:31.791Z,100791.78
2022-12-20T20:26:59.782Z,100787.72
2022-12-20T20:29:28.179Z,100782.00
2022-12-20T20:31:56.241Z,100777.94
2022-12-20T20:34:23.182Z,100774.78
2022-12-20T20:36:50.149Z,100768.56
2022-12-20T20:39:17.085Z,100764.38
2022-12-20T20:41:44.218Z,100754.97
2022-12-20T20:44:14.146Z,100744.06
2022-12-20T20:46:41.043Z,100749.06
2022-12-20T20:49:07.893Z,100735.47
2022-12-20T20:51:35.031Z,100727.97
2022-12-20T20:54:02.021Z,100727.72
2022-12-20T20:56:30.338Z,100734.25
2022-12-20T20:59:02.906Z,100733.44
2022-12-20T21:01:33.059Z,100736.41
2022-12-20T21:04:01.361Z,100733.53
2022-12-20T21:06:41.012Z,100722.72
2022-12-20T21:09:09.184Z,100732.94
2022-12-20T21:11:37.188Z,100732.81
2022-12-20T21:14:04.163Z,100735.75
2022-12-20T21:16:31.101Z,100729.94
2022-12-20T21:18:59.233Z,100731.97
2022-12-20T21:21:27.507Z,100729.59
2022-12-20T21:23:58.373Z,100736.84
2022-12-20T21:26:25.633Z,100730.47
2022-12-20T21:28:59.803Z,100730.69
2022-12-20T21:31:29.315Z,100744.63
2022-12-20T21:33:58.671Z,100722.84
2022-12-20T21:36:25.912Z,100724.81
2022-12-20T21:38:56.227Z,100715.97
2022-12-20T21:41:25.151Z,100712.63
2022-12-20T21:43:54.903Z,100712.75
2022-12-20T21:46:21.806Z,100706.94
2022-12-20T21:48:48.601Z,100705.09
2022-12-20T21:51:19.426Z,100709.00
2022-12-20T21:53:48.814Z,100717.66
2022-12-20T21:56:16.066Z,100714.44
2022-12-20T21:58:45.161Z,100709.38
2022-12-20T22:01:14.416Z,100702.31
2022-12-20T22:03:41.699Z,100708.00
2022-12-20T22:06:08.636Z,100713.00
2022-12-20T22:08:36.921Z,100711.75
2022-12-20T22:11:09.804Z,100703.34
2022-12-20T22:13:41.605Z,100689.41
2022-12-20T22:16:18.006Z,100695.91
2022-12-20T22:18:48.570Z,100687.03
2022-12-20T22:21:16.005Z,100684.44
2022-12-20T22:23:44.211Z,100683.16
2022-12-20T22:26:19.402Z,100675.13
2022-12-20T22:28:51.223Z,100673.13
2022-12-20T22:31:20.912Z,100676.63
2022-12-20T22:33:47.762Z,100669.34
2022-12-20T22:36:16.120Z,100681.28
2022-12-20T22:38:46.288Z,100677.13
2022-12-20T22:41:24.547Z,100673.63
2022-12-20T22:43:54.591Z,100680.03
2022-12-20T22:49:05.596Z,100682.84
2022-12-20T22:51:33.859Z,100678.56
2022-12-20T22:54:00.890Z,100662.78
2022-12-20T22:56:27.633Z,100675.22
2022-12-20T22:58:54.304Z,100676.63
2022-12-20T23:01:21.869Z,100667.53
2022-12-20T23:03:49.382Z,100651.22
2022-12-20T23:06:19.346Z,100655.91
2022-12-20T23:08:46.602Z,100648.72
2022-12-20T23:11:41.976Z,100636.44
2022-12-20T23:14:33.861Z,100637.59
2022-12-20T23:17:01.459Z,100636.69
2022-12-20T23:19:28.797Z,100634.34
2022-12-20T23:22:18.759Z,100626.47
2022-12-20T23:24:46.560Z,100617.88
2022-12-20T23:27:13.261Z,100622.19
2022-12-20T23:29:40.670Z,100619.22
2022-12-20T23:32:07.439Z,100617.38
2022-12-20T23:34:35.402Z,100613.22
2022-12-20T23:37:02.215Z,100597.53
2022-12-20T23:39:28.931Z,100580.34
2022-12-20T23:41:55.548Z,100572.56
2022-12-20T23:44:22.272Z,100581.16
2022-12-20T23:46:48.972Z,100581.38
2022-12-20T23:49:15.723Z,100578.25
2022-12-20T23:51:42.733Z,100571.88
2022-12-20T23:54:11.642Z,100567.44
2022-12-20T23:56:38.484Z,100569.50
2022-12-20T23:59:05.147Z,100575.88
